createdAt,value
2019-05-01T00:01:01.364Z,101410.64
2019-05-01T00:03:49.741Z,101401.98
2019-05-01T00:06:19.870Z,101401.50
2019-05-01T00:08:49.596Z,101395.00
2019-05-01T00:11:18.084Z,101403.69
2019-05-01T00:13:46.669Z,101394.47
2019-05-01T00:16:15.092Z,101393.98
2019-05-01T00:18:43.532Z,101390.39
2019-05-01T00:21:11.964Z,101392.95
2019-05-01T00:23:40.394Z,101391.23
2019-05-01T00:26:08.829Z,101382.99
2019-05-01T00:28:37.356Z,101383.49
2019-05-01T00:31:05.820Z,101378.23
2019-05-01T00:33:34.259Z,101377.46
2019-05-01T00:36:02.716Z,101377.09
2019-05-01T00:38:31.231Z,101371.95
2019-05-01T00:40:59.740Z,101369.75
2019-05-01T00:43:28.208Z,101364.03
2019-05-01T00:45:56.628Z,101367.91
2019-05-01T00:48:25.177Z,101365.73
2019-05-01T00:50:53.579Z,101354.91
2019-05-01T00:53:22.013Z,101360.17
2019-05-01T00:55:52.105Z,101359.69
2019-05-01T00:58:28.116Z,101358.83
2019-05-01T01:01:07.190Z,101354.98
2019-05-01T01:03:39.961Z,101350.70
2019-05-01T01:06:08.964Z,101346.33
2019-05-01T01:08:37.403Z,101345.48
2019-05-01T01:11:05.812Z,101340.27
2019-05-01T01:13:34.230Z,101344.61
2019-05-01T01:16:02.692Z,101343.69
2019-05-01T01:18:31.110Z,101345.87
2019-05-01T01:20:59.545Z,101345.06
2019-05-01T01:23:27.969Z,101341.13
2019-05-01T01:25:56.562Z,101334.17
2019-05-01T01:28:25.127Z,101333.72
2019-05-01T01:30:56.458Z,101332.82
2019-05-01T01:33:23.770Z,101324.52
2019-05-01T01:35:52.201Z,101333.16
2019-05-01T01:38:20.732Z,101328.05
2019-05-01T01:40:49.328Z,101321.59
2019-05-01T01:43:35.564Z,101324.63
2019-05-01T01:46:09.542Z,101332.02
2019-05-01T01:48:38.313Z,101338.93
2019-05-01T01:51:06.815Z,101339.38
2019-05-01T01:53:36.382Z,101330.70
2019-05-01T01:56:04.954Z,101332.02
2019-05-01T01:58:33.441Z,101335.03
2019-05-01T02:01:09.620Z,101330.69
2019-05-01T02:03:44.587Z,101327.25
2019-05-01T02:06:13.157Z,101325.48
2019-05-01T02:08:41.718Z,101328.95
2019-05-01T02:11:10.216Z,101322.03
2019-05-01T02:13:38.752Z,101324.63
2019-05-01T02:16:07.146Z,101327.63
2019-05-01T02:18:35.576Z,101326.78
2019-05-01T02:21:04.637Z,101315.96
2019-05-01T02:23:33.065Z,101317.24
2019-05-01T02:26:02.214Z,101328.09
2019-05-01T02:28:35.160Z,101321.08
2019-05-01T02:31:26.996Z,101315.83
2019-05-01T02:33:44.741Z,101305.91
2019-05-01T02:36:16.421Z,101305.48
2019-05-01T02:38:47.163Z,101307.22
2019-05-01T02:41:16.828Z,101301.06
2019-05-01T02:43:49.988Z,101300.19
2019-05-01T02:46:21.219Z,101236.42
2019-05-01T02:48:55.396Z,101295.07
2019-05-01T02:51:26.155Z,101295.09
2019-05-01T02:53:56.030Z,101286.81
2019-05-01T02:56:26.819Z,101287.66
2019-05-01T02:59:04.361Z,101285.01
2019-05-01T03:01:46.427Z,101283.72
2019-05-01T03:04:05.514Z,101287.23
2019-05-01T03:06:35.740Z,101282.48
2019-05-01T03:09:10.779Z,101281.64
2019-05-01T03:11:41.572Z,101285.50
2019-05-01T03:14:13.053Z,101281.58
2019-05-01T03:16:42.891Z,101279.36
2019-05-01T03:19:18.602Z,101287.07
2019-05-01T03:21:54.762Z,101288.78
2019-05-01T03:24:25.491Z,101287.05
2019-05-01T03:26:55.071Z,101286.86
2019-05-01T03:29:29.279Z,101287.65
2019-05-01T03:32:16.042Z,101283.33
2019-05-01T03:34:28.987Z,101283.55
2019-05-01T03:36:57.528Z,101277.52
2019-05-01T03:39:26.596Z,101274.09
2019-05-01T03:41:55.183Z,101269.84
2019-05-01T03:44:24.310Z,101271.59
2019-05-01T03:46:53.767Z,101272.06
2019-05-01T03:49:22.393Z,101266.85
2019-05-01T03:51:50.821Z,101265.13
2019-05-01T03:54:19.429Z,101262.92
2019-05-01T03:56:48.114Z,101266.81
2019-05-01T03:59:17.419Z,101261.11
2019-05-01T04:01:47.751Z,101258.50
2019-05-01T04:04:18.562Z,101260.28
2019-05-01T04:06:48.358Z,101261.59
2019-05-01T04:09:18.366Z,101259.88
2019-05-01T04:11:47.029Z,101255.55
2019-05-01T04:14:15.581Z,101257.27
2019-05-01T04:16:45.892Z,101257.27
2019-05-01T04:19:16.163Z,101255.94
2019-05-01T04:21:46.295Z,101259.81
2019-05-01T04:24:15.549Z,101258.92
2019-05-01T04:26:43.978Z,101261.04
2019-05-01T04:29:15.265Z,101249.39
2019-05-01T04:32:00.642Z,101256.70
2019-05-01T04:34:42.517Z,101250.20
2019-05-01T04:37:13.247Z,101262.80
2019-05-01T04:39:47.900Z,101260.25
2019-05-01T04:42:16.551Z,101198.09
2019-05-01T04:44:45.334Z,101261.92
2019-05-01T04:47:14.408Z,101257.52
2019-05-01T04:49:43.600Z,101260.05
2019-05-01T04:52:12.179Z,101270.52
2019-05-01T04:54:40.838Z,101268.84
2019-05-01T04:57:09.365Z,101270.13
2019-05-01T04:59:38.345Z,101272.75
2019-05-01T05:02:08.866Z,101275.92
2019-05-01T05:04:37.664Z,101279.38
2019-05-01T05:07:06.335Z,101280.63
2019-05-01T05:09:46.233Z,101283.59
2019-05-01T05:12:26.306Z,101285.83
2019-05-01T05:14:56.552Z,101271.17
2019-05-01T05:17:26.721Z,101280.33
2019-05-01T05:19:56.191Z,101281.21
2019-05-01T05:22:24.911Z,101279.89
2019-05-01T05:24:54.568Z,101277.75
2019-05-01T05:27:24.556Z,101276.02
2019-05-01T05:29:57.222Z,101285.58
2019-05-01T05:32:28.784Z,101282.52
2019-05-01T05:34:59.297Z,101281.64
2019-05-01T05:37:31.483Z,101289.80
2019-05-01T05:40:01.447Z,101291.47
2019-05-01T05:42:30.730Z,101291.89
2019-05-01T05:44:59.633Z,101287.18
2019-05-01T05:47:35.618Z,101286.38
2019-05-01T05:50:06.372Z,101283.81
2019-05-01T05:52:44.269Z,101287.31
2019-05-01T05:55:26.475Z,101294.68
2019-05-01T05:57:59.333Z,101295.53
2019-05-01T06:00:36.670Z,101290.78
2019-05-01T06:03:31.033Z,101298.58
2019-05-01T06:05:58.472Z,101293.82
2019-05-01T06:08:30.521Z,101298.56
2019-05-01T06:11:07.945Z,101295.06
2019-05-01T06:13:56.981Z,101302.03
2019-05-01T06:16:32.000Z,101301.17
2019-05-01T06:19:17.720Z,101295.97
2019-05-01T06:21:55.918Z,101302.46
2019-05-01T06:24:28.732Z,101303.30
2019-05-01T06:26:57.908Z,101305.46
2019-05-01T06:29:30.951Z,101298.53
2019-05-01T06:31:58.707Z,101298.11
2019-05-01T06:34:28.643Z,101295.94
2019-05-01T06:36:57.368Z,101294.63
2019-05-01T06:39:25.944Z,101295.52
2019-05-01T06:41:54.627Z,101295.95
2019-05-01T06:44:33.563Z,101284.23
2019-05-01T06:47:12.267Z,101284.67
2019-05-01T06:49:43.091Z,101294.20
2019-05-01T06:52:13.218Z,101294.22
2019-05-01T06:54:41.787Z,101294.66
2019-05-01T06:57:10.390Z,101293.38
2019-05-01T06:59:40.676Z,101296.81
2019-05-01T07:02:12.142Z,101299.86
2019-05-01T07:04:42.241Z,101295.53
2019-05-01T07:07:24.764Z,101299.44
2019-05-01T07:09:44.082Z,101296.84
2019-05-01T07:12:15.437Z,101296.41
2019-05-01T07:14:47.029Z,101298.16
2019-05-01T07:17:14.975Z,101296.42
2019-05-01T07:19:54.598Z,101298.14
2019-05-01T07:22:23.089Z,101302.05
2019-05-01T07:24:52.155Z,101275.14
2019-05-01T07:27:23.630Z,101301.61
2019-05-01T07:29:53.838Z,101300.75
2019-05-01T07:32:23.105Z,101301.62
2019-05-01T07:34:51.690Z,101302.05
2019-05-01T07:37:20.857Z,101303.71
2019-05-01T07:39:51.828Z,101301.51
2019-05-01T07:42:28.523Z,101298.05
2019-05-01T07:45:08.230Z,101298.55
2019-05-01T07:47:40.013Z,101302.92
2019-05-01T07:50:17.542Z,101300.33
2019-05-01T07:52:47.788Z,101301.15
2019-05-01T07:55:20.243Z,101298.54
2019-05-01T07:57:48.889Z,101305.53
2019-05-01T08:00:41.065Z,101297.72
2019-05-01T08:03:07.376Z,101305.53
2019-05-01T08:05:40.820Z,101302.06
2019-05-01T08:08:07.895Z,101303.78
2019-05-01T08:10:38.539Z,101302.02
2019-05-01T08:13:06.961Z,101301.62
2019-05-01T08:15:35.382Z,101293.34
2019-05-01T08:18:24.038Z,101301.19
2019-05-01T08:20:55.087Z,101296.84
2019-05-01T08:23:23.524Z,101298.55
2019-05-01T08:25:51.935Z,101303.78
2019-05-01T08:28:31.644Z,101304.63
2019-05-01T08:31:15.681Z,101309.80
2019-05-01T08:33:54.579Z,101305.44
2019-05-01T08:36:23.077Z,101305.84
2019-05-01T08:38:51.576Z,101304.98
2019-05-01T08:41:20.030Z,101309.77
2019-05-01T08:43:53.460Z,101305.84
2019-05-01T08:46:32.834Z,101309.73
2019-05-01T08:49:13.245Z,101308.43
2019-05-01T08:51:41.658Z,101314.09
2019-05-01T08:54:10.160Z,101308.86
2019-05-01T08:56:38.758Z,101315.80
2019-05-01T08:59:13.588Z,101308.02
2019-05-01T09:01:45.758Z,101314.48
2019-05-01T09:04:13.304Z,101306.61
2019-05-01T09:06:43.863Z,101304.39
2019-05-01T09:09:13.282Z,101306.95
2019-05-01T09:11:41.700Z,101299.91
2019-05-01T09:14:10.152Z,101300.73
2019-05-01T09:16:38.566Z,101298.37
2019-05-01T09:19:07.069Z,101296.08
2019-05-01T09:21:37.730Z,101299.41
2019-05-01T09:24:06.691Z,101294.77
2019-05-01T09:26:45.386Z,101296.08
2019-05-01T09:29:20.321Z,101289.94
2019-05-01T09:31:49.811Z,101289.73
2019-05-01T09:34:19.253Z,101288.45
2019-05-01T09:36:48.473Z,101288.23
2019-05-01T09:39:18.872Z,101287.81
2019-05-01T09:41:48.662Z,101281.33
2019-05-01T09:44:17.306Z,101285.19
2019-05-01T09:46:45.739Z,101283.78
2019-05-01T09:49:17.793Z,101290.83
2019-05-01T09:51:49.326Z,101291.55
2019-05-01T09:54:31.493Z,101282.38
2019-05-01T09:57:00.009Z,101279.62
2019-05-01T09:59:31.913Z,101277.20
2019-05-01T10:02:02.921Z,101278.45
2019-05-01T10:04:32.366Z,101280.08
2019-05-01T10:07:02.290Z,101273.88
2019-05-01T10:09:30.847Z,101274.67
2019-05-01T10:11:59.263Z,101271.88
2019-05-01T10:14:31.600Z,101263.89
2019-05-01T10:16:57.847Z,101258.95
2019-05-01T10:19:26.276Z,101268.25
2019-05-01T10:21:57.862Z,101268.08
2019-05-01T10:24:24.859Z,101265.88
2019-05-01T10:26:59.973Z,101262.88
2019-05-01T10:29:43.173Z,101261.81
2019-05-01T10:32:16.978Z,101265.24
2019-05-01T10:35:01.388Z,101263.25
2019-05-01T10:37:33.582Z,101257.00
2019-05-01T10:40:00.037Z,101251.16
2019-05-01T10:42:28.473Z,101251.42
2019-05-01T10:44:56.881Z,101251.37
2019-05-01T10:47:25.322Z,101248.75
2019-05-01T10:49:53.750Z,101241.86
2019-05-01T10:52:22.218Z,101233.73
2019-05-01T10:54:50.702Z,101232.56
2019-05-01T10:57:19.222Z,101234.09
2019-05-01T10:59:47.674Z,101234.72
2019-05-01T11:02:17.745Z,101227.52
2019-05-01T11:04:46.301Z,101226.10
2019-05-01T11:07:14.749Z,101217.73
2019-05-01T11:09:43.185Z,101218.85
2019-05-01T11:12:11.613Z,101214.16
2019-05-01T11:14:40.038Z,101220.28
2019-05-01T11:17:08.519Z,101213.13
2019-05-01T11:19:36.938Z,101216.22
2019-05-01T11:22:05.627Z,101214.50
2019-05-01T11:24:34.120Z,101210.20
2019-05-01T11:27:02.629Z,101213.08
2019-05-01T11:29:31.058Z,101206.20
2019-05-01T11:32:07.076Z,101200.70
2019-05-01T11:34:37.116Z,101204.16
2019-05-01T11:37:08.508Z,101190.27
2019-05-01T11:39:40.942Z,101189.16
2019-05-01T11:42:13.228Z,101191.09
2019-05-01T11:44:41.657Z,101187.91
2019-05-01T11:47:19.178Z,101183.55
2019-05-01T11:49:47.608Z,101185.81
2019-05-01T11:52:16.034Z,101183.90
2019-05-01T11:54:44.447Z,101184.25
2019-05-01T11:57:12.885Z,101177.32
2019-05-01T11:59:41.345Z,101180.49
2019-05-01T12:02:09.773Z,101175.89
2019-05-01T12:04:38.215Z,101166.81
2019-05-01T12:07:06.724Z,101166.60
2019-05-01T12:09:35.224Z,101158.44
2019-05-01T12:12:05.474Z,101165.92
2019-05-01T12:14:34.562Z,101157.68
2019-05-01T12:17:19.342Z,101155.78
2019-05-01T12:19:47.777Z,101150.79
2019-05-01T12:22:16.216Z,101152.66
2019-05-01T12:24:44.656Z,101152.52
2019-05-01T12:27:13.169Z,101149.72
2019-05-01T12:29:41.627Z,101154.38
2019-05-01T12:32:10.043Z,101145.72
2019-05-01T12:34:39.155Z,101142.35
2019-05-01T12:37:17.911Z,101144.65
2019-05-01T12:39:46.550Z,101141.13
2019-05-01T12:42:16.583Z,101140.72
2019-05-01T12:44:46.575Z,101140.06
2019-05-01T12:47:16.780Z,101133.61
2019-05-01T12:49:46.917Z,101130.06
2019-05-01T12:52:19.718Z,101129.55
2019-05-01T12:54:52.893Z,101120.83
2019-05-01T12:57:21.323Z,101119.22
2019-05-01T12:59:49.775Z,101118.47
2019-05-01T13:02:18.207Z,101116.58
2019-05-01T13:04:46.632Z,101113.95
2019-05-01T13:07:15.137Z,101109.28
2019-05-01T13:09:43.553Z,101108.56
2019-05-01T13:12:12.001Z,101102.47
2019-05-01T13:14:40.412Z,101109.13
2019-05-01T13:17:08.861Z,101101.87
2019-05-01T13:19:37.271Z,101092.37
2019-05-01T13:22:05.773Z,101089.67
2019-05-01T13:24:35.850Z,101087.31
2019-05-01T13:27:06.157Z,101074.64
2019-05-01T13:29:38.891Z,101073.33
2019-05-01T13:32:13.200Z,101062.83
2019-05-01T13:34:41.622Z,101057.59
2019-05-01T13:37:10.058Z,101056.88
2019-05-01T13:39:38.498Z,101049.55
2019-05-01T13:42:09.086Z,101053.06
2019-05-01T13:44:37.659Z,101048.22
2019-05-01T13:47:06.092Z,101041.66
2019-05-01T13:49:34.517Z,101041.12
2019-05-01T13:52:02.949Z,101038.75
2019-05-01T13:54:31.439Z,101037.37
2019-05-01T13:56:59.906Z,101036.20
2019-05-01T13:59:28.332Z,101029.70
2019-05-01T14:01:56.836Z,101028.17
2019-05-01T14:04:40.261Z,101020.37
2019-05-01T14:07:16.192Z,101025.12
2019-05-01T14:09:39.102Z,101018.41
2019-05-01T14:12:07.595Z,101010.43
2019-05-01T14:14:36.031Z,101002.31
2019-05-01T14:17:04.532Z,101006.59
2019-05-01T14:19:34.345Z,100999.27
2019-05-01T14:22:20.797Z,100993.79
2019-05-01T14:25:11.295Z,100994.32
2019-05-01T14:27:39.822Z,100986.52
2019-05-01T14:30:10.397Z,100990.66
2019-05-01T14:32:38.843Z,100980.95
2019-05-01T14:35:25.733Z,100980.64
2019-05-01T14:37:54.172Z,100979.17
2019-05-01T14:40:22.600Z,100971.94
2019-05-01T14:42:51.073Z,100968.61
2019-05-01T14:45:19.754Z,100967.42
2019-05-01T14:47:51.544Z,100971.22
2019-05-01T14:50:19.984Z,100964.06
2019-05-01T14:52:48.453Z,100964.52
2019-05-01T14:55:16.891Z,100958.63
2019-05-01T14:57:45.387Z,100963.17
2019-05-01T15:00:14.633Z,100954.69
2019-05-01T15:02:43.085Z,100955.15
2019-05-01T15:05:11.772Z,100946.85
2019-05-01T15:07:43.890Z,100950.68
2019-05-01T15:10:10.588Z,100944.89
2019-05-01T15:12:42.074Z,100941.05
2019-05-01T15:15:28.241Z,100947.55
2019-05-01T15:18:01.240Z,100951.07
2019-05-01T15:20:29.688Z,100932.61
2019-05-01T15:23:04.373Z,100934.27
2019-05-01T15:25:32.837Z,100760.24
2019-05-01T15:28:01.274Z,100925.59
2019-05-01T15:30:29.789Z,100927.56
2019-05-01T15:32:58.239Z,100928.33
2019-05-01T15:35:26.789Z,100927.54
2019-05-01T15:37:56.835Z,100920.61
2019-05-01T15:40:36.087Z,100914.83
2019-05-01T15:43:24.097Z,100917.94
2019-05-01T15:45:52.607Z,100917.01
2019-05-01T15:48:21.058Z,100916.08
2019-05-01T15:50:50.111Z,100916.30
2019-05-01T15:53:19.649Z,100911.24
2019-05-01T15:55:48.112Z,100907.81
2019-05-01T15:58:16.545Z,100902.13
2019-05-01T16:00:45.130Z,100909.48
2019-05-01T16:03:13.621Z,100911.60
2019-05-01T16:05:42.232Z,100909.27
2019-05-01T16:08:10.822Z,100900.61
2019-05-01T16:10:40.919Z,100898.89
2019-05-01T16:13:09.388Z,100902.48
2019-05-01T16:15:37.842Z,100903.41
2019-05-01T16:18:06.297Z,100901.31
2019-05-01T16:20:34.939Z,100895.88
2019-05-01T16:23:03.370Z,100903.84
2019-05-01T16:25:31.795Z,100894.72
2019-05-01T16:28:00.410Z,100893.27
2019-05-01T16:30:28.903Z,100889.39
2019-05-01T16:32:57.427Z,100884.36
2019-05-01T16:35:25.836Z,100887.33
2019-05-01T16:37:55.931Z,100879.48
2019-05-01T16:40:34.769Z,100877.36
2019-05-01T16:43:21.563Z,100876.73
2019-05-01T16:45:49.999Z,100880.79
2019-05-01T16:48:18.432Z,100870.66
2019-05-01T16:50:48.485Z,100871.34
2019-05-01T16:53:16.916Z,100863.98
2019-05-01T16:55:47.805Z,100868.64
2019-05-01T16:58:16.987Z,100862.16
2019-05-01T17:01:02.265Z,100865.83
2019-05-01T17:03:35.357Z,100863.19
2019-05-01T17:06:11.345Z,100856.72
2019-05-01T17:08:47.135Z,100859.23
2019-05-01T17:11:15.914Z,100856.20
2019-05-01T17:13:57.225Z,100854.83
2019-05-01T17:16:26.200Z,100851.44
2019-05-01T17:18:54.651Z,100850.42
2019-05-01T17:21:23.067Z,100847.89
2019-05-01T17:23:51.516Z,100849.56
2019-05-01T17:26:20.585Z,100843.97
2019-05-01T17:28:49.007Z,100850.97
2019-05-01T17:31:17.421Z,100845.73
2019-05-01T17:33:45.846Z,100849.18
2019-05-01T17:36:14.274Z,100842.59
2019-05-01T17:38:49.246Z,100847.45
2019-05-01T17:41:12.845Z,100841.89
2019-05-01T17:43:44.705Z,100835.81
2019-05-01T17:46:12.071Z,100838.23
2019-05-01T17:48:46.577Z,100841.56
2019-05-01T17:51:10.887Z,100837.72
2019-05-01T17:53:39.329Z,100845.00
2019-05-01T17:56:10.068Z,100839.54
2019-05-01T17:58:37.882Z,100842.94
2019-05-01T18:01:07.955Z,100842.28
2019-05-01T18:03:54.495Z,100840.30
2019-05-01T18:06:30.314Z,100840.13
2019-05-01T18:09:03.350Z,100837.58
2019-05-01T18:11:31.965Z,100839.55
2019-05-01T18:14:01.427Z,100842.80
2019-05-01T18:16:29.960Z,100836.55
2019-05-01T18:18:58.383Z,100845.05
2019-05-01T18:21:26.956Z,100837.02
2019-05-01T18:24:06.008Z,100836.28
2019-05-01T18:26:52.464Z,100836.06
2019-05-01T18:29:35.513Z,100829.98
2019-05-01T18:32:02.987Z,100832.44
2019-05-01T18:34:33.693Z,100826.98
2019-05-01T18:37:20.535Z,100831.28
2019-05-01T18:39:49.608Z,100823.66
2019-05-01T18:42:30.014Z,100833.03
2019-05-01T18:44:58.544Z,100838.08
2019-05-01T18:47:27.028Z,100832.98
2019-05-01T18:49:55.465Z,100830.48
2019-05-01T18:52:23.895Z,100833.50
2019-05-01T18:54:58.084Z,100835.84
2019-05-01T18:57:26.612Z,100832.73
2019-05-01T18:59:55.044Z,100835.70
2019-05-01T19:02:24.974Z,100840.26
2019-05-01T19:04:53.863Z,100837.83
2019-05-01T19:07:22.268Z,100843.88
2019-05-01T19:09:50.777Z,100850.69
2019-05-01T19:12:19.282Z,100851.84
2019-05-01T19:14:47.814Z,100850.55
2019-05-01T19:17:16.308Z,100852.09
2019-05-01T19:19:44.998Z,100853.41
2019-05-01T19:22:13.514Z,100849.09
2019-05-01T19:24:42.030Z,100861.14
2019-05-01T19:27:14.201Z,100855.98
2019-05-01T19:29:40.712Z,100857.23
2019-05-01T19:32:09.624Z,100858.86
2019-05-01T19:34:38.048Z,100859.81
2019-05-01T19:37:39.801Z,100861.31
2019-05-01T19:40:08.353Z,100858.66
2019-05-01T19:42:36.833Z,100859.91
2019-05-01T19:45:06.687Z,100859.39
2019-05-01T19:47:35.089Z,100867.85
2019-05-01T19:50:07.381Z,100855.46
2019-05-01T19:52:37.925Z,100857.34
2019-05-01T19:55:09.966Z,100867.03
2019-05-01T19:57:53.839Z,100868.48
2019-05-01T20:00:31.645Z,100870.75
2019-05-01T20:03:00.362Z,100865.12
2019-05-01T20:05:29.071Z,100866.72
2019-05-01T20:08:00.309Z,100869.17
2019-05-01T20:10:28.722Z,100871.52
2019-05-01T20:12:57.150Z,100873.18
2019-05-01T20:15:26.602Z,100871.92
2019-05-01T20:17:55.043Z,100871.89
2019-05-01T20:20:24.958Z,100867.84
2019-05-01T20:22:55.304Z,100863.36
2019-05-01T20:25:23.657Z,100872.33
2019-05-01T20:27:53.250Z,100868.90
2019-05-01T20:30:21.861Z,100865.41
2019-05-01T20:32:50.273Z,100863.63
2019-05-01T20:35:18.718Z,100872.95
2019-05-01T20:37:47.128Z,100870.41
2019-05-01T20:40:16.802Z,100867.30
2019-05-01T20:42:45.223Z,100863.91
2019-05-01T20:45:23.530Z,100860.09
2019-05-01T20:47:46.021Z,100865.59
2019-05-01T20:50:14.747Z,100854.88
2019-05-01T20:52:43.160Z,100851.70
2019-05-01T20:55:11.656Z,100852.02
2019-05-01T20:57:44.439Z,100848.59
2019-05-01T21:00:16.701Z,100846.53
2019-05-01T21:02:44.627Z,100845.47
2019-05-01T21:05:32.804Z,100850.16
2019-05-01T21:08:05.659Z,100850.37
2019-05-01T21:10:36.088Z,100850.17
2019-05-01T21:13:04.616Z,100850.33
2019-05-01T21:15:33.074Z,100856.17
2019-05-01T21:18:04.960Z,100848.45
2019-05-01T21:20:33.953Z,100849.33
2019-05-01T21:23:05.966Z,100852.37
2019-05-01T21:25:32.506Z,100852.78
2019-05-01T21:28:00.929Z,100848.44
2019-05-01T21:30:29.363Z,100851.50
2019-05-01T21:32:59.087Z,100849.22
2019-05-01T21:35:27.939Z,100849.98
2019-05-01T21:37:56.365Z,100847.91
2019-05-01T21:40:37.406Z,100853.86
2019-05-01T21:42:55.868Z,100843.71
2019-05-01T21:45:24.361Z,100843.09
2019-05-01T21:47:52.953Z,100839.63
2019-05-01T21:50:22.786Z,100846.96
2019-05-01T21:52:53.649Z,100842.72
2019-05-01T21:55:25.443Z,100834.72
2019-05-01T21:57:51.858Z,100843.55
2019-05-01T22:00:24.803Z,100843.02
2019-05-01T22:02:51.334Z,100843.03
2019-05-01T22:05:19.757Z,100845.38
2019-05-01T22:07:48.187Z,100845.28
2019-05-01T22:10:16.745Z,100842.90
2019-05-01T22:12:48.892Z,100852.84
2019-05-01T22:15:27.043Z,100847.83
2019-05-01T22:17:59.804Z,100850.09
2019-05-01T22:20:29.945Z,100844.39
2019-05-01T22:23:02.414Z,100850.93
2019-05-01T22:25:32.528Z,100845.70
2019-05-01T22:28:03.237Z,100847.47
2019-05-01T22:31:08.043Z,100841.07
2019-05-01T22:33:37.495Z,100844.30
2019-05-01T22:36:06.385Z,100838.98
2019-05-01T22:38:34.821Z,100839.63
2019-05-01T22:41:15.350Z,100836.13
2019-05-01T22:43:43.806Z,100836.14
2019-05-01T22:46:13.858Z,100832.81
2019-05-01T22:48:42.297Z,100828.25
2019-05-01T22:51:12.357Z,100834.30
2019-05-01T22:53:40.786Z,100836.32
2019-05-01T22:56:09.208Z,100827.33
2019-05-01T22:58:37.631Z,100832.35
2019-05-01T23:01:07.288Z,100830.84
2019-05-01T23:03:41.384Z,100825.62
2019-05-01T23:06:10.644Z,100817.64
2019-05-01T23:08:39.149Z,100826.55
2019-05-01T23:11:19.006Z,100822.14
2019-05-01T23:13:37.982Z,100826.80
2019-05-01T23:16:06.954Z,100812.72
2019-05-01T23:18:35.382Z,100817.41
2019-05-01T23:21:04.263Z,100816.91
2019-05-01T23:23:32.765Z,100816.02
2019-05-01T23:26:01.204Z,100818.25
2019-05-01T23:28:29.621Z,100812.25
2019-05-01T23:30:58.050Z,100811.98
2019-05-01T23:33:26.489Z,100806.06
2019-05-01T23:35:54.985Z,100805.67
2019-05-01T23:38:23.473Z,100805.14
2019-05-01T23:40:52.964Z,100802.47
2019-05-01T23:43:23.012Z,100799.92
2019-05-01T23:45:51.682Z,100791.25
2019-05-01T23:48:20.102Z,100792.20
2019-05-01T23:50:48.543Z,100788.64
2019-05-01T23:53:16.972Z,100788.75
2019-05-01T23:55:45.424Z,100789.24
2019-05-01T23:58:14.472Z,100788.01
